Time;durP1;ratioP1;P1;durP2;ratioP2;P2;SDS_P1;SDS_P2;PMS_P1;PMS_P2;Temp;Humidity;BMP_temperature;BMP_pressure;BME280_temperature;BME280_humidity;BME280_pressure;Samples;Min_cycle;Max_cycle;Signal;HPM_P1;HPM_P2
2021/10/29 00:00:07;;;;;;;37.20;26.37;;;;;;;9.17;100.00;101004.61;1725534;83;21052;-70
2021/10/29 00:02:34;;;;;;;39.60;25.67;;;;;;;9.06;100.00;101010.94;1725393;83;21079;-69
2021/10/29 00:05:02;;;;;;;40.03;26.20;;;;;;;8.95;100.00;101010.22;1698832;83;21036;-72
2021/10/29 00:07:29;;;;;;;41.30;28.00;;;;;;;8.85;100.00;101021.83;1725263;83;21025;-70
2021/10/29 00:09:58;;;;;;;40.00;26.10;;;;;;;8.76;100.00;101015.03;1696329;83;21076;-70
2021/10/29 00:12:26;;;;;;;37.40;26.57;;;;;;;8.68;100.00;101019.27;1766636;81;21062;-70
2021/10/29 00:14:53;;;;;;;42.47;27.20;;;;;;;8.58;100.00;101022.41;1702009;83;21105;-70
2021/10/29 00:17:20;;;;;;;38.90;26.27;;;;;;;8.48;100.00;101025.06;1691265;83;21521;-70
2021/10/29 00:19:47;;;;;;;42.87;27.70;;;;;;;8.39;100.00;101024.45;1766852;81;21060;-70
2021/10/29 00:22:15;;;;;;;41.93;28.63;;;;;;;8.31;100.00;101026.98;1711165;81;21032;-70
2021/10/29 00:24:43;;;;;;;44.03;30.13;;;;;;;8.20;100.00;101021.17;1767146;81;21020;-69
2021/10/29 00:27:11;;;;;;;43.30;31.03;;;;;;;8.11;100.00;101022.81;1701833;83;21031;-70
2021/10/29 00:29:38;;;;;;;40.13;29.17;;;;;;;8.02;100.00;101022.25;1691572;83;21485;-70
2021/10/29 00:32:06;;;;;;;36.40;25.87;;;;;;;7.96;100.00;101021.41;1735583;81;21024;-71
2021/10/29 00:34:35;;;;;;;37.33;25.67;;;;;;;7.90;100.00;101024.13;1735349;81;21016;-70
2021/10/29 00:37:03;;;;;;;37.70;26.90;;;;;;;7.84;100.00;101019.25;1767156;81;21019;-70
2021/10/29 00:39:30;;;;;;;39.37;27.33;;;;;;;7.80;100.00;101018.66;1767420;81;21496;-69
2021/10/29 00:41:57;;;;;;;40.30;26.33;;;;;;;7.74;100.00;101021.88;1679417;83;21054;-70
2021/10/29 00:44:25;;;;;;;36.20;25.03;;;;;;;7.69;100.00;101022.75;1705102;83;20978;-70
2021/10/29 00:46:52;;;;;;;37.00;25.37;;;;;;;7.65;100.00;101031.20;1758216;82;21037;-71
2021/10/29 00:49:21;;;;;;;37.27;25.33;;;;;;;7.62;100.00;101027.45;1714241;82;21034;-70
2021/10/29 00:51:48;;;;;;;39.57;26.07;;;;;;;7.56;100.00;101029.66;1754219;82;21019;-70
2021/10/29 00:54:17;;;;;;;37.70;25.40;;;;;;;7.51;100.00;101029.19;1753860;82;21487;-70
2021/10/29 00:56:45;;;;;;;37.93;26.30;;;;;;;7.46;100.00;101026.02;1724638;82;21007;-70
2021/10/29 00:59:13;;;;;;;37.93;26.60;;;;;;;7.40;100.00;101017.96;1753555;82;21035;-71
2021/10/29 01:01:42;;;;;;;36.90;25.53;;;;;;;7.38;100.00;101022.63;1724133;82;21036;-70
2021/10/29 01:04:09;;;;;;;37.63;26.33;;;;;;;7.36;100.00;101027.75;1753360;82;21054;-70
2021/10/29 01:06:38;;;;;;;37.10;26.53;;;;;;;7.30;100.00;101025.58;1724501;82;21059;-70
2021/10/29 01:09:06;;;;;;;39.30;26.73;;;;;;;7.24;100.00;101022.88;1724172;82;20995;-70
2021/10/29 01:11:34;;;;;;;42.00;26.67;;;;;;;7.17;100.00;101025.23;1725113;82;21058;-70
2021/10/29 01:14:01;;;;;;;39.83;26.27;;;;;;;7.11;100.00;101020.83;1723003;83;21079;-71
2021/10/29 01:16:29;;;;;;;38.80;25.70;;;;;;;7.08;100.00;101017.89;1723285;83;21020;-71
2021/10/29 01:18:56;;;;;;;39.53;25.37;;;;;;;7.04;100.00;101030.73;1696963;83;21015;-69
2021/10/29 01:21:23;;;;;;;38.97;26.43;;;;;;;7.00;100.00;101031.12;1723445;83;21050;-71
2021/10/29 01:23:50;;;;;;;38.53;25.40;;;;;;;6.96;100.00;101039.92;1723450;83;20976;-70
2021/10/29 01:26:17;;;;;;;37.53;25.53;;;;;;;6.91;100.00;101038.59;1723403;83;21014;-70
2021/10/29 01:28:45;;;;;;;36.63;25.90;;;;;;;6.89;100.00;101045.89;1696993;83;20983;-70
2021/10/29 01:31:14;;;;;;;38.27;26.20;;;;;;;6.88;100.00;101047.73;1723410;83;21050;-70
2021/10/29 01:33:42;;;;;;;38.43;25.93;;;;;;;6.87;100.00;101054.58;1723349;83;21050;-70
2021/10/29 01:36:09;;;;;;;38.90;26.30;;;;;;;6.83;100.00;101047.24;1723325;83;21046;-70
2021/10/29 01:38:39;;;;;;;39.33;25.83;;;;;;;6.79;100.00;101047.13;1722897;83;21396;-70
2021/10/29 01:41:07;;;;;;;35.07;24.93;;;;;;;6.74;100.00;101047.48;1723099;83;21038;-70
2021/10/29 01:43:47;;;;;;;35.90;24.43;;;;;;;6.69;100.00;101049.68;1722923;83;21069;-70
2021/10/29 01:46:16;;;;;;;37.60;25.27;;;;;;;6.67;100.00;101052.98;1696796;83;21013;-70
2021/10/29 01:48:50;;;;;;;36.70;24.10;;;;;;;6.63;100.00;101059.09;1696802;83;21068;-71
2021/10/29 01:51:17;;;;;;;37.63;25.03;;;;;;;6.61;100.00;101062.39;1724290;83;21022;-70
2021/10/29 01:53:45;;;;;;;37.37;24.90;;;;;;;6.56;100.00;101064.58;1698411;83;21015;-70
2021/10/29 01:56:13;;;;;;;35.90;24.77;;;;;;;6.53;100.00;101062.12;1724742;83;21480;-70
2021/10/29 01:58:40;;;;;;;36.50;24.20;;;;;;;6.51;100.00;101059.20;1698426;83;21168;-70
2021/10/29 02:01:07;;;;;;;36.10;23.87;;;;;;;6.47;100.00;101065.30;1698535;83;21042;-70
2021/10/29 02:03:34;;;;;;;35.07;24.53;;;;;;;6.46;100.00;101070.30;1698133;83;20995;-71
2021/10/29 02:06:01;;;;;;;36.53;24.63;;;;;;;6.45;100.00;101075.31;1698200;83;21026;-71
2021/10/29 02:08:29;;;;;;;39.97;28.17;;;;;;;6.43;100.00;101072.75;1724819;83;21066;-70
2021/10/29 02:10:56;;;;;;;39.50;27.60;;;;;;;6.43;100.00;101070.06;1741918;81;21009;-69
2021/10/29 02:13:26;;;;;;;38.67;26.13;;;;;;;6.44;100.00;101078.47;1792626;80;21019;-71
2021/10/29 02:15:53;;;;;;;41.83;28.10;;;;;;;6.48;100.00;101082.27;1762043;80;21089;-71
2021/10/29 02:18:20;;;;;;;44.80;30.00;;;;;;;6.51;100.00;101088.75;1792728;80;21078;-70
2021/10/29 02:20:49;;;;;;;41.23;28.57;;;;;;;6.54;100.00;101093.41;1762219;80;21067;-70
2021/10/29 02:23:16;;;;;;;42.40;28.57;;;;;;;6.58;100.00;101097.55;1762087;80;20995;-70
2021/10/29 02:25:44;;;;;;;44.40;29.33;;;;;;;6.64;100.00;101093.06;1792909;80;21047;-71
2021/10/29 02:28:17;;;;;;;42.30;27.13;;;;;;;6.74;100.00;101099.05;1792663;80;21023;-70
2021/10/29 02:30:45;;;;;;;43.45;27.20;;;;;;;6.85;100.00;101100.40;1729705;83;21550;-71
2021/10/29 02:33:14;;;;;;;40.87;26.93;;;;;;;6.97;100.00;101107.50;1729665;83;21082;-71
2021/10/29 02:35:41;;;;;;;41.97;26.60;;;;;;;7.09;100.00;101103.48;1729433;83;21038;-69
2021/10/29 02:38:09;;;;;;;41.77;27.00;;;;;;;7.18;100.00;101108.12;1729492;83;21046;-70
2021/10/29 02:40:36;;;;;;;41.83;27.10;;;;;;;7.28;100.00;101114.48;1729803;83;21027;-71
2021/10/29 02:43:03;;;;;;;41.63;26.30;;;;;;;7.41;100.00;101119.22;1705716;83;21042;-70
2021/10/29 02:45:31;;;;;;;39.53;24.83;;;;;;;7.52;100.00;101122.88;1706452;83;20983;-71
2021/10/29 02:47:58;;;;;;;42.07;26.60;;;;;;;7.63;100.00;101127.39;1705352;84;21567;-70
2021/10/29 02:50:26;;;;;;;41.47;26.90;;;;;;;7.73;100.00;101124.31;1682191;84;21026;-70
2021/10/29 02:52:55;;;;;;;40.23;25.67;;;;;;;7.85;100.00;101135.42;1705771;84;21550;-69
2021/10/29 02:55:22;;;;;;;39.80;25.20;;;;;;;7.96;100.00;101144.80;1682127;84;21018;-70
2021/10/29 02:57:49;;;;;;;36.93;24.03;;;;;;;8.07;100.00;101146.59;1705184;84;21082;-69
2021/10/29 03:00:17;;;;;;;38.00;24.93;;;;;;;8.17;100.00;101143.50;1705644;84;20994;-71
2021/10/29 03:02:44;;;;;;;36.37;24.63;;;;;;;8.25;100.00;101142.88;1705637;84;21670;-70
2021/10/29 03:05:12;;;;;;;37.67;24.27;;;;;;;8.32;100.00;101148.12;1682153;84;21123;-70
2021/10/29 03:07:40;;;;;;;37.23;23.67;;;;;;;8.38;100.00;101149.43;1681811;84;21073;-70
2021/10/29 03:10:10;;;;;;;39.27;23.80;;;;;;;8.42;100.00;101145.52;1682218;84;21188;-69
2021/10/29 03:12:39;;;;;;;36.27;22.80;;;;;;;8.47;100.00;101142.44;1681953;84;21150;-71
2021/10/29 03:15:09;;;;;;;33.33;22.43;;;;;;;8.51;100.00;101143.38;1705586;84;21066;-71
2021/10/29 03:17:38;;;;;;;34.63;23.83;;;;;;;8.53;100.00;101139.20;1705172;84;21049;-70
2021/10/29 03:20:07;;;;;;;35.77;23.67;;;;;;;8.57;100.00;101141.14;1681893;84;21038;-70
2021/10/29 03:22:37;;;;;;;41.80;24.90;;;;;;;8.56;100.00;101128.17;1682228;84;21035;-70
2021/10/29 03:25:07;;;;;;;33.33;22.27;;;;;;;8.57;100.00;101133.06;1705311;84;21570;-71
2021/10/29 03:27:34;;;;;;;33.23;22.10;;;;;;;8.56;100.00;101134.91;1710414;81;21016;-69
2021/10/29 03:30:02;;;;;;;35.33;22.87;;;;;;;8.59;100.00;101135.13;1767485;81;21036;-71
2021/10/29 03:32:31;;;;;;;32.73;23.07;;;;;;;8.59;100.00;101141.39;1767196;81;20993;-71
2021/10/29 03:34:58;;;;;;;30.77;20.85;;;;;;;8.59;100.00;101136.00;1767400;81;21472;-71
2021/10/29 03:42:32;;;;;;;33.50;22.00;;;;;;;8.59;100.00;101149.95;1643397;87;21163;-70
2021/10/29 03:45:05;;;;;;;32.73;21.80;;;;;;;8.57;100.00;101151.93;1677866;85;21053;-72
2021/10/29 03:47:38;;;;;;;52.77;27.27;;;;;;;8.53;100.00;101149.52;1694036;85;21050;-70
2021/10/29 03:52:46;;;;;;;34.27;23.00;;;;;;;8.52;100.00;101153.69;1589045;90;21173;-70
2021/10/29 03:55:07;;;;;;;45.17;29.43;;;;;;;8.53;100.00;101152.69;1589442;90;21081;-69
2021/10/29 03:57:34;;;;;;;35.73;23.70;;;;;;;8.51;100.00;101150.12;1568564;90;21073;-71
2021/10/29 04:00:02;;;;;;;46.73;31.73;;;;;;;8.49;100.00;101151.25;1589458;90;21078;-70
2021/10/29 04:02:31;;;;;;;48.00;33.50;;;;;;;8.48;100.00;101154.91;1589285;90;21151;-71
2021/10/29 04:04:57;;;;;;;197.60;162.30;;;;;;;8.46;100.00;101152.84;1568399;90;21030;-69
2021/10/29 04:07:25;;;;;;;47.60;32.97;;;;;;;8.44;100.00;101159.71;1589207;90;21073;-71
2021/10/29 04:09:51;;;;;;;43.73;27.00;;;;;;;8.44;100.00;101157.52;1589201;90;21175;-70
2021/10/29 04:12:18;;;;;;;46.40;31.03;;;;;;;8.42;100.00;101150.03;1588797;90;21109;-71
2021/10/29 04:14:47;;;;;;;45.00;31.37;;;;;;;8.40;100.00;101147.95;1588958;90;21105;-71
2021/10/29 04:17:14;;;;;;;36.50;24.73;;;;;;;8.39;100.00;101148.93;1588856;90;21050;-69
2021/10/29 04:19:41;;;;;;;38.67;25.43;;;;;;;8.40;100.00;101157.39;1622862;86;21490;-71
2021/10/29 04:22:08;;;;;;;36.70;24.73;;;;;;;8.39;100.00;101149.78;1649067;85;21078;-70
2021/10/29 04:24:35;;;;;;;36.13;25.03;;;;;;;8.39;100.00;101157.86;1649123;86;21570;-69
2021/10/29 04:27:03;;;;;;;37.43;24.47;;;;;;;8.39;100.00;101158.36;1671803;85;21560;-73
2021/10/29 04:29:38;;;;;;;40.33;26.50;;;;;;;8.36;100.00;101167.08;1684622;81;21015;-71
2021/10/29 04:32:06;;;;;;;55.73;39.40;;;;;;;8.35;100.00;101171.24;1734776;81;21030;-71
2021/10/29 04:34:33;;;;;;;101.53;66.53;;;;;;;8.34;100.00;101180.33;1762461;81;21018;-71
2021/10/29 04:37:00;;;;;;;92.20;60.57;;;;;;;8.36;100.00;101181.89;1762412;81;21017;-73
2021/10/29 04:39:28;;;;;;;57.87;42.73;;;;;;;8.39;100.00;101190.70;1762428;81;21085;-71
2021/10/29 04:41:55;;;;;;;43.07;30.30;;;;;;;8.41;100.00;101192.77;1734880;81;21046;-72
2021/10/29 04:44:22;;;;;;;40.83;29.67;;;;;;;8.41;100.00;101195.00;1745553;80;21481;-72
2021/10/29 04:46:51;;;;;;;37.80;27.13;;;;;;;8.42;100.00;101194.03;1782251;80;21029;-73
2021/10/29 04:49:18;;;;;;;40.20;28.57;;;;;;;8.44;100.00;101197.45;1756319;80;21496;-72
2021/10/29 04:51:47;;;;;;;43.70;30.30;;;;;;;8.45;100.00;101201.02;1761150;80;21089;-72
2021/10/29 04:54:13;;;;;;;39.93;26.37;;;;;;;8.48;100.00;101211.52;1726437;82;21522;-73
2021/10/29 04:56:43;;;;;;;47.50;30.47;;;;;;;8.49;100.00;101212.74;1758549;82;21021;-72
2021/10/29 04:59:12;;;;;;;50.30;33.27;;;;;;;8.51;100.00;101214.81;1730889;82;21155;-72
2021/10/29 05:01:39;;;;;;;56.97;33.03;;;;;;;8.52;100.00;101223.27;1758566;82;20986;-71
2021/10/29 05:04:06;;;;;;;52.13;32.47;;;;;;;8.53;100.00;101236.25;1758263;82;21042;-72
2021/10/29 05:06:33;;;;;;;51.07;32.80;;;;;;;8.53;100.00;101225.00;1757850;82;21058;-72
2021/10/29 05:09:00;;;;;;;51.30;31.90;;;;;;;8.55;100.00;101232.93;1758343;82;21030;-72
2021/10/29 05:11:27;;;;;;;41.43;27.37;;;;;;;8.55;100.00;101238.33;1771280;80;21082;-71
2021/10/29 05:13:54;;;;;;;40.43;27.83;;;;;;;8.57;100.00;101236.85;1755327;80;21028;-72
2021/10/29 05:16:23;;;;;;;44.60;29.03;;;;;;;8.53;100.00;101241.17;1785870;80;21536;-72
2021/10/29 05:18:50;;;;;;;44.87;29.80;;;;;;;8.52;100.00;101243.49;1786112;80;21021;-71
2021/10/29 05:21:17;;;;;;;37.83;24.93;;;;;;;8.50;100.00;101245.47;1786152;80;21047;-73
2021/10/29 05:23:44;;;;;;;38.20;24.13;;;;;;;8.49;100.00;101245.59;1786281;80;20996;-73
2021/10/29 05:26:12;;;;;;;38.83;24.90;;;;;;;8.45;100.00;101255.77;1755268;80;21040;-72
2021/10/29 05:28:39;;;;;;;38.23;24.17;;;;;;;8.41;100.00;101252.95;1786226;80;21520;-71
2021/10/29 05:31:08;;;;;;;42.20;26.73;;;;;;;8.37;100.00;101251.47;1786351;80;21095;-71
2021/10/29 05:33:35;;;;;;;37.53;25.03;;;;;;;8.34;100.00;101251.75;1785943;80;21068;-73
2021/10/29 05:36:02;;;;;;;42.80;30.57;;;;;;;8.33;100.00;101256.26;1786580;80;21028;-73
2021/10/29 05:38:30;;;;;;;42.47;28.67;;;;;;;8.38;100.00;101257.73;1786095;80;21095;-72
2021/10/29 05:41:00;;;;;;;49.23;35.97;;;;;;;8.39;100.00;101263.47;1755639;80;21036;-74
2021/10/29 05:43:26;;;;;;;53.67;41.10;;;;;;;8.41;100.00;101266.42;1758801;79;21039;-71
2021/10/29 05:45:53;;;;;;;45.37;34.13;;;;;;;8.44;100.00;101266.68;1813608;79;21018;-71
2021/10/29 05:48:20;;;;;;;44.67;27.37;;;;;;;8.45;100.00;101267.91;1784857;79;21154;-73
2021/10/29 05:50:50;;;;;;;42.63;28.53;;;;;;;8.46;100.00;101273.64;1800400;79;21028;-72
2021/10/29 05:53:35;;;;;;;65.07;37.27;;;;;;;8.42;100.00;101282.97;1785408;80;21520;-71
2021/10/29 05:55:49;;;;;;;55.70;35.50;;;;;;;8.38;100.00;101286.04;1718039;83;21021;-73
2021/10/29 05:58:16;;;;;;;44.20;28.57;;;;;;;8.32;100.00;101291.41;1697539;83;21038;-71
2021/10/29 06:00:44;;;;;;;104.37;52.30;;;;;;;8.29;100.00;101291.69;1720470;83;21030;-74
2021/10/29 06:03:12;;;;;;;62.60;36.13;;;;;;;8.27;100.00;101299.89;1719358;83;21012;-71
2021/10/29 06:05:39;;;;;;;52.90;29.37;;;;;;;8.24;100.00;101296.09;1719126;83;21042;-70
2021/10/29 06:08:07;;;;;;;41.40;25.53;;;;;;;8.26;100.00;101295.97;1657463;84;21117;-72
2021/10/29 06:10:34;;;;;;;44.10;27.13;;;;;;;8.28;100.00;101301.59;1731989;82;20984;-73
2021/10/29 06:13:01;;;;;;;45.27;28.03;;;;;;;8.30;100.00;101296.92;1745412;81;21031;-71
2021/10/29 06:15:29;;;;;;;45.63;28.23;;;;;;;8.31;100.00;101297.80;1743577;81;21160;-71
2021/10/29 06:17:57;;;;;;;94.53;55.60;;;;;;;8.33;100.00;101311.50;1743790;82;21030;-71
2021/10/29 06:20:24;;;;;;;83.37;44.83;;;;;;;8.35;100.00;101328.41;1720451;82;21542;-71
2021/10/29 06:22:53;;;;;;;59.03;33.03;;;;;;;8.36;100.00;101331.98;1745391;82;21534;-71
2021/10/29 06:25:27;;;;;;;136.53;64.87;;;;;;;8.33;100.00;101333.06;1745490;82;21058;-71
2021/10/29 06:30:45;;;;;;;44.97;27.83;;;;;;;8.29;100.00;101338.34;1744147;82;21512;-74
2021/10/29 06:33:19;;;;;;;46.53;30.03;;;;;;;8.31;100.00;101328.30;1691809;85;21556;-72
2021/10/29 06:35:46;;;;;;;44.33;30.60;;;;;;;8.34;100.00;101332.09;1655390;86;21110;-74
2021/10/29 06:38:13;;;;;;;42.93;28.63;;;;;;;8.39;100.00;101338.44;1657363;86;21093;-75
2021/10/29 06:40:43;;;;;;;98.23;47.20;;;;;;;8.45;100.00;101342.53;1637873;86;21066;-73
2021/10/29 06:43:20;;;;;;;105.70;48.93;;;;;;;8.49;100.00;101343.48;1623169;88;21059;-72
2021/10/29 06:48:29;;;;;;;51.70;28.53;;;;;;;8.51;100.00;101334.77;1587035;89;21076;-76
2021/10/29 06:59:13;;;;;;;42.57;24.93;;;;;;;8.55;100.00;101331.33;1533794;92;22412;-73
2021/10/29 07:42:34;;;;;;;42.50;26.33;;;;;;;8.85;100.00;101360.80;1429886;100;21138;-72
2021/10/29 07:44:59;;;;;;;37.48;23.27;;;;;;;8.85;100.00;101363.49;1399657;99;21190;-72
2021/10/29 07:47:26;;;;;;;48.37;29.43;;;;;;;8.84;100.00;101365.84;1426414;99;21155;-71
2021/10/29 07:49:53;;;;;;;40.57;22.80;;;;;;;8.83;100.00;101361.42;1443282;99;21216;-69
2021/10/29 07:52:20;;;;;;;137.93;68.70;;;;;;;8.85;100.00;101360.80;1470909;94;21056;-72
2021/10/29 07:54:47;;;;;;;346.17;159.73;;;;;;;8.87;100.00;101359.70;1570676;89;21186;-73
2021/10/29 07:57:19;;;;;;;92.53;49.87;;;;;;;8.85;100.00;101361.67;1602184;89;21045;-72
2021/10/29 07:59:49;;;;;;;55.73;33.03;;;;;;;8.82;100.00;101361.92;1605987;86;21093;-71
2021/10/29 08:02:17;;;;;;;81.03;48.23;;;;;;;8.81;100.00;101353.95;1622535;87;21040;-72
2021/10/29 08:04:44;;;;;;;64.07;39.00;;;;;;;8.82;100.00;101361.04;1643873;87;20996;-72
2021/10/29 08:07:11;;;;;;;55.50;35.00;;;;;;;8.89;100.00;101362.27;1647185;87;21521;-72
2021/10/29 08:09:41;;;;;;;36.93;24.30;;;;;;;8.94;100.00;101358.67;1622024;87;21729;-72
2021/10/29 08:12:09;;;;;;;54.20;39.53;;;;;;;8.93;100.00;101357.83;1659559;84;21057;-72
2021/10/29 08:14:37;;;;;;;46.53;32.73;;;;;;;8.95;100.00;101358.20;1672192;84;21190;-72
2021/10/29 08:17:05;;;;;;;43.30;32.30;;;;;;;8.98;100.00;101357.45;1672081;84;21482;-72
2021/10/29 08:19:35;;;;;;;63.93;43.60;;;;;;;9.03;100.00;101366.49;1672563;84;21113;-70
2021/10/29 08:22:04;;;;;;;57.80;34.87;;;;;;;9.08;100.00;101369.66;1669598;84;21099;-71
2021/10/29 08:24:33;;;;;;;61.17;34.80;;;;;;;9.10;100.00;101370.39;1681874;84;21029;-70
2021/10/29 08:27:01;;;;;;;50.53;28.70;;;;;;;9.08;100.00;101373.23;1678152;84;21491;-72
2021/10/29 08:29:28;;;;;;;50.43;30.37;;;;;;;9.09;100.00;101373.59;1681122;84;21144;-71
2021/10/29 08:31:55;;;;;;;46.20;27.30;;;;;;;9.11;100.00;101367.56;1677310;84;21054;-75
2021/10/29 08:34:25;;;;;;;50.40;28.07;;;;;;;9.14;100.00;101369.16;1666969;84;20992;-72
2021/10/29 08:36:57;;;;;;;77.17;45.23;;;;;;;9.12;100.00;101371.14;1675842;84;21015;-72
2021/10/29 08:39:26;;;;;;;68.47;38.15;;;;;;;9.14;100.00;101373.21;1628656;87;21033;-72
2021/10/29 08:41:53;;;;;;;60.93;36.57;;;;;;;9.19;100.00;101377.73;1603129;89;21097;-71
2021/10/29 08:44:20;;;;;;;52.53;35.77;;;;;;;9.20;100.00;101371.83;1620120;87;21042;-71
2021/10/29 08:46:47;;;;;;;55.00;39.77;;;;;;;9.23;100.00;101375.63;1603494;87;21652;-71
2021/10/29 08:49:16;;;;;;;57.90;41.70;;;;;;;9.26;100.00;101372.17;1572952;89;21069;-73
2021/10/29 08:51:45;;;;;;;61.60;38.53;;;;;;;9.30;100.00;101370.92;1603302;88;22047;-73
2021/10/29 08:54:13;;;;;;;55.27;35.90;;;;;;;9.36;100.00;101370.04;1598054;88;21116;-72
2021/10/29 08:56:40;;;;;;;61.33;40.40;;;;;;;9.35;100.00;101374.59;1604084;88;21121;-73
2021/10/29 08:59:18;;;;;;;49.20;36.67;;;;;;;9.37;100.00;101371.77;1625242;87;21435;-74
2021/10/29 09:07:21;;;;;;;73.62;42.48;;;;;;;9.49;100.00;101374.73;1631715;87;21073;-73
2021/10/29 09:32:29;;;;;;;47.43;30.77;;;;;;;9.57;100.00;101371.40;1529548;93;21185;-71
2021/10/29 09:35:04;;;;;;;58.40;32.27;;;;;;;9.58;100.00;101374.44;1532100;91;21753;-72
2021/10/29 09:37:37;;;;;;;46.50;31.47;;;;;;;9.61;100.00;101369.63;1523392;93;21291;-74
2021/10/29 09:40:13;;;;;;;43.03;29.23;;;;;;;9.63;100.00;101367.68;1507936;94;21127;-75
2021/10/29 09:42:40;;;;;;;52.23;29.75;;;;;;;9.65;100.00;101371.09;1490509;96;21285;-73
2021/10/29 09:45:17;;;;;;;61.73;29.20;;;;;;;9.66;100.00;101371.44;1489701;95;21140;-71
2021/10/29 09:47:50;;;;;;;42.10;27.67;;;;;;;9.67;100.00;101376.37;1444392;98;21090;-72
2021/10/29 09:53:04;;;;;;;45.53;29.13;;;;;;;9.74;100.00;101376.67;1411167;102;21108;-71
2021/10/29 09:55:53;;;;;;;42.08;29.30;;;;;;;9.75;100.00;101373.84;1387534;103;21193;-73
2021/10/29 09:58:17;;;;;;;41.92;25.48;;;;;;;9.78;100.00;101376.80;1372618;103;21593;-71
2021/10/29 10:00:44;;;;;;;44.40;26.90;;;;;;;9.83;100.00;101364.59;1389417;103;21125;-72
2021/10/29 10:03:15;;;;;;;37.90;27.00;;;;;;;9.94;100.00;101370.91;1393143;103;21194;-72
2021/10/29 10:05:42;;;;;;;34.53;23.10;;;;;;;10.01;100.00;101370.22;1395457;102;21141;-73
2021/10/29 10:08:11;;;;;;;160.85;64.05;;;;;;;10.02;100.00;101371.06;1403645;102;21149;-73
2021/10/29 10:10:39;;;;;;;63.17;32.15;;;;;;;10.07;100.00;101375.10;1422014;99;21163;-71
2021/10/29 10:13:08;;;;;;;50.67;26.30;;;;;;;10.11;100.00;101366.70;1465632;97;21184;-73
2021/10/29 10:15:36;;;;;;;38.17;21.60;;;;;;;10.12;100.00;101373.33;1446085;98;21143;-73
2021/10/29 10:18:03;;;;;;;35.85;20.75;;;;;;;10.17;100.00;101368.87;1456927;98;21194;-72
2021/10/29 10:20:30;;;;;;;43.95;29.87;;;;;;;10.29;100.00;101375.02;1426979;99;21157;-70
2021/10/29 10:22:57;;;;;;;43.38;32.63;;;;;;;10.37;100.00;101371.18;1453124;98;21118;-70
2021/10/29 10:47:04;;;;;;;36.55;27.67;;;;;;;10.51;100.00;101358.63;1584938;89;21573;-69
2021/10/29 10:49:41;;;;;;;37.75;26.73;;;;;;;10.56;100.00;101361.77;1618882;88;21570;-71
2021/10/29 10:52:21;;;;;;;37.85;26.02;;;;;;;10.61;100.00;101366.27;1661248;86;22273;-69
2021/10/29 10:57:22;;;;;;;47.38;28.45;;;;;;;10.71;100.00;101355.48;1662743;86;21031;-70
2021/10/29 11:00:01;;;;;;;33.25;25.82;;;;;;;10.80;100.00;101354.63;1658787;86;21714;-70
2021/10/29 11:10:17;;;;;;;31.70;21.68;;;;;;;10.79;100.00;101344.80;1662464;86;21200;-69
2021/10/29 11:12:51;;;;;;;35.05;21.97;;;;;;;10.83;100.00;101350.78;1639195;86;21583;-70
2021/10/29 11:15:24;;;;;;;38.73;23.75;;;;;;;10.87;100.00;101348.64;1659384;86;21091;-69
2021/10/29 11:18:02;;;;;;;36.42;23.75;;;;;;;10.86;100.00;101351.02;1655925;86;21075;-70
2021/10/29 11:20:42;;;;;;;36.95;24.15;;;;;;;10.84;100.00;101351.16;1646570;86;21121;-70
2021/10/29 11:23:26;;;;;;;40.85;25.88;;;;;;;10.81;100.00;101346.86;1653251;86;21056;-69
2021/10/29 11:26:04;;;;;;;36.03;26.02;;;;;;;10.77;100.00;101346.80;1658667;86;21055;-70
2021/10/29 11:28:44;;;;;;;36.05;25.00;;;;;;;10.70;100.00;101346.16;1660368;86;21628;-69
2021/10/29 11:31:20;;;;;;;38.38;27.05;;;;;;;10.62;100.00;101351.77;1635502;86;21091;-71
2021/10/29 11:33:50;;;;;;;55.28;29.18;;;;;;;10.64;100.00;101357.88;1743291;82;20994;-71
2021/10/29 11:36:22;;;;;;;76.07;29.00;;;;;;;10.75;100.00;101356.06;1749703;81;21077;-67
2021/10/29 11:38:50;;;;;;;39.60;23.32;;;;;;;10.91;100.00;101353.64;1635369;86;21125;-69
2021/10/29 11:41:24;;;;;;;36.50;26.73;;;;;;;11.05;100.00;101348.31;1662543;85;21871;-70
2021/10/29 11:43:51;;;;;;;36.63;25.30;;;;;;;11.27;100.00;101342.25;1628292;88;21531;-68
2021/10/29 11:46:21;;;;;;;35.05;25.60;;;;;;;11.49;100.00;101344.66;1608724;88;21046;-70
2021/10/29 11:48:57;;;;;;;34.88;23.83;;;;;;;11.72;100.00;101345.65;1601496;88;21051;-70
2021/10/29 11:51:24;;;;;;;36.28;25.15;;;;;;;11.97;100.00;101341.48;1629693;88;21106;-69
2021/10/29 11:54:22;;;;;;;37.33;25.77;;;;;;;12.23;100.00;101337.57;1608307;88;21114;-70
2021/10/29 12:07:31;;;;;;;41.37;25.82;;;;;;;13.55;100.00;101327.53;1626745;88;21019;-72
2021/10/29 12:10:08;;;;;;;35.13;23.92;;;;;;;13.67;100.00;101328.98;1631601;88;21118;-72
2021/10/29 12:12:40;;;;;;;33.92;22.05;;;;;;;13.80;100.00;101328.54;1626470;88;21150;-72
2021/10/29 12:15:15;;;;;;;31.93;21.82;;;;;;;13.95;100.00;101327.45;1596008;88;21136;-71
2021/10/29 12:17:59;;;;;;;48.23;24.18;;;;;;;14.05;100.00;101321.36;1571582;90;21073;-72
2021/10/29 12:20:35;;;;;;;34.23;21.33;;;;;;;14.12;100.00;101321.56;1565259;90;21141;-72
2021/10/29 12:23:12;;;;;;;31.48;22.67;;;;;;;14.35;100.00;101334.08;1585518;89;21117;-73
2021/10/29 12:33:39;;;;;;;38.48;26.17;;;;;;;15.64;100.00;101319.61;1502302;94;21090;-75
2021/10/29 13:01:41;;;;;;;40.88;24.50;;;;;;;16.91;100.00;101315.52;1496244;95;21093;-74
2021/10/29 13:04:22;;;;;;;37.80;22.82;;;;;;;16.97;100.00;101313.44;1482643;97;21032;-74
2021/10/29 13:06:52;;;;;;;35.70;23.22;;;;;;;16.89;100.00;101308.36;1481467;97;21094;-72
2021/10/29 13:09:28;;;;;;;28.75;20.40;;;;;;;16.83;100.00;101313.17;1525381;92;21132;-74
2021/10/29 13:12:05;;;;;;;43.75;26.33;;;;;;;16.86;100.00;101314.71;1532857;93;21080;-74
2021/10/29 13:14:42;;;;;;;37.03;20.02;;;;;;;16.87;100.00;101308.20;1528574;93;21620;-74
2021/10/29 13:17:12;;;;;;;36.15;22.52;;;;;;;16.78;100.00;101310.09;1517844;91;21065;-76
2021/10/29 13:22:55;;;;;;;42.08;26.93;;;;;;;16.27;100.00;101317.40;1605675;88;21047;-74
2021/10/29 13:50:19;;;;;;;51.35;33.38;;;;;;;14.90;100.00;101319.62;1671235;86;21070;-74
2021/10/29 13:52:14;;;;;;;30.35;20.17;;;;;;;12.90;100.00;101328.65;1664859;86;20994;-75
2021/10/29 14:02:52;;;;;;;41.25;23.92;;;;;;;11.75;100.00;101338.08;1591789;89;21048;-73
2021/10/29 14:28:07;;;;;;;41.50;21.82;;;;;;;10.30;100.00;101352.41;1637501;87;21589;-73
2021/10/29 14:32:24;;;;;;;47.70;27.10;;;;;;;9.82;100.00;101357.97;1627627;88;21109;-73
2021/10/29 14:34:57;;;;;;;71.65;37.73;;;;;;;9.66;100.00;101357.09;1625152;87;21577;-72
2021/10/29 14:40:21;;;;;;;87.00;48.55;;;;;;;9.43;100.00;101360.42;1642414;86;21088;-72
2021/10/29 14:42:50;;;;;;;74.00;42.20;;;;;;;9.31;100.00;101365.02;1656798;86;21072;-72
2021/10/29 14:50:46;;;;;;;65.57;35.98;;;;;;;8.87;100.00;101374.54;1640409;86;21527;-71
2021/10/29 15:06:31;;;;;;;51.80;29.95;;;;;;;8.16;100.00;101389.69;1569599;91;21091;-73
2021/10/29 15:28:17;;;;;;;54.80;29.50;;;;;;;7.48;100.00;101399.48;1646051;87;21585;-72
2021/10/29 15:49:06;;;;;;;48.65;27.52;;;;;;;7.07;100.00;101430.88;1755168;81;21081;-73
2021/10/29 15:51:27;;;;;;;49.40;26.77;;;;;;;7.02;100.00;101435.24;1722790;82;21061;-72
2021/10/29 15:53:54;;;;;;;49.40;27.27;;;;;;;6.99;100.00;101428.73;1735800;82;22250;-72
2021/10/29 15:59:13;;;;;;;50.23;28.17;;;;;;;6.96;100.00;101445.97;1674753;85;21087;-71
2021/10/29 16:01:41;;;;;;;57.85;29.25;;;;;;;6.95;100.00;101446.93;1648448;86;21067;-72
2021/10/29 16:17:37;;;;;;;68.03;34.40;;;;;;;6.89;100.00;101461.31;1717708;83;21036;-73
2021/10/29 16:20:06;;;;;;;62.23;33.67;;;;;;;6.84;100.00;101461.66;1717969;83;21080;-71